Carthage, Missouri
Current Conditions -  °F | °C
As of 9:53 AM on Wednesday 28 Jan 2015 (Local Time) from KJLN Reporting Station
Clear Clear  
Wind Chill: 63°   Ceiling: Unl
Heat Index: 63°   Visibility: 10mi
Dew Point: 36°   Wind: 20mph
Humidity: 37%   Direction: 190°S
Pressure: 30.02"   Gusts: NA
Location:  37.18°N, 94.31°W
Report Text: KJLN 281553Z 19017KT 10SM CLR 17/02 A3002 RMK AO2 SLP163 T01720022 $
Loading
Personal Weather Stations






























Interactive Weather Map New forecast layout! Learn more

10-Day Weather Forecast

Advertisements
Track Severe Weather on mobile